sensor_id;sensor_type;location;lat;lon;timestamp;P1;durP1;ratioP1;P2;durP2;ratioP2
9563;SDS011;4820;50.870;4.702;2023-06-14T00:00:57;6.13;;;5.53;;
9563;SDS011;4820;50.870;4.702;2023-06-14T00:03:23;6.43;;;5.82;;
9563;SDS011;4820;50.870;4.702;2023-06-14T00:05:49;6.22;;;5.65;;
9563;SDS011;4820;50.870;4.702;2023-06-14T00:08:15;6.57;;;5.95;;
9563;SDS011;4820;50.870;4.702;2023-06-14T00:10:41;6.30;;;5.70;;
9563;SDS011;4820;50.870;4.702;2023-06-14T00:13:07;8.05;;;5.90;;
9563;SDS011;4820;50.870;4.702;2023-06-14T00:15:35;6.38;;;5.68;;
9563;SDS011;4820;50.870;4.702;2023-06-14T00:18:01;6.47;;;5.57;;
9563;SDS011;4820;50.870;4.702;2023-06-14T00:20:27;6.18;;;5.57;;
9563;SDS011;4820;50.870;4.702;2023-06-14T00:22:54;7.18;;;5.80;;
9563;SDS011;4820;50.870;4.702;2023-06-14T00:25:21;7.05;;;6.07;;
9563;SDS011;4820;50.870;4.702;2023-06-14T00:27:48;6.20;;;5.65;;
9563;SDS011;4820;50.870;4.702;2023-06-14T00:30:14;7.40;;;5.90;;
9563;SDS011;4820;50.870;4.702;2023-06-14T00:32:40;6.55;;;5.80;;
9563;SDS011;4820;50.870;4.702;2023-06-14T00:35:08;7.55;;;5.93;;
9563;SDS011;4820;50.870;4.702;2023-06-14T00:37:34;7.57;;;5.97;;
9563;SDS011;4820;50.870;4.702;2023-06-14T00:40:00;6.28;;;5.25;;
9563;SDS011;4820;50.870;4.702;2023-06-14T00:42:27;7.18;;;5.90;;
9563;SDS011;4820;50.870;4.702;2023-06-14T00:44:53;6.45;;;5.70;;
9563;SDS011;4820;50.870;4.702;2023-06-14T00:47:19;6.25;;;5.50;;
9563;SDS011;4820;50.870;4.702;2023-06-14T00:49:46;8.13;;;5.85;;
9563;SDS011;4820;50.870;4.702;2023-06-14T00:52:13;9.20;;;6.18;;
9563;SDS011;4820;50.870;4.702;2023-06-14T00:54:40;6.18;;;5.40;;
9563;SDS011;4820;50.870;4.702;2023-06-14T00:57:07;8.25;;;5.57;;
9563;SDS011;4820;50.870;4.702;2023-06-14T00:59:33;7.53;;;5.68;;
9563;SDS011;4820;50.870;4.702;2023-06-14T01:02:03;6.55;;;5.72;;
9563;SDS011;4820;50.870;4.702;2023-06-14T01:04:29;7.32;;;5.88;;
9563;SDS011;4820;50.870;4.702;2023-06-14T01:09:46;6.25;;;5.60;;
9563;SDS011;4820;50.870;4.702;2023-06-14T01:12:24;7.05;;;5.50;;
9563;SDS011;4820;50.870;4.702;2023-06-14T01:15:00;6.30;;;5.72;;
9563;SDS011;4820;50.870;4.702;2023-06-14T01:17:27;7.75;;;6.18;;
9563;SDS011;4820;50.870;4.702;2023-06-14T01:20:06;10.80;;;6.65;;
9563;SDS011;4820;50.870;4.702;2023-06-14T01:22:35;8.80;;;6.28;;
9563;SDS011;4820;50.870;4.702;2023-06-14T01:25:01;8.43;;;5.95;;
9563;SDS011;4820;50.870;4.702;2023-06-14T01:27:26;7.70;;;6.30;;
9563;SDS011;4820;50.870;4.702;2023-06-14T01:29:57;6.70;;;6.00;;
9563;SDS011;4820;50.870;4.702;2023-06-14T01:32:26;8.32;;;6.28;;
9563;SDS011;4820;50.870;4.702;2023-06-14T01:34:53;8.30;;;6.38;;
9563;SDS011;4820;50.870;4.702;2023-06-14T01:37:19;7.05;;;6.35;;
9563;SDS011;4820;50.870;4.702;2023-06-14T01:39:47;10.00;;;6.75;;
9563;SDS011;4820;50.870;4.702;2023-06-14T01:42:15;8.38;;;6.45;;
9563;SDS011;4820;50.870;4.702;2023-06-14T01:44:41;7.35;;;6.53;;
9563;SDS011;4820;50.870;4.702;2023-06-14T01:47:10;7.20;;;6.50;;
9563;SDS011;4820;50.870;4.702;2023-06-14T01:49:38;8.07;;;6.45;;
9563;SDS011;4820;50.870;4.702;2023-06-14T01:52:04;8.82;;;7.00;;
9563;SDS011;4820;50.870;4.702;2023-06-14T01:54:31;10.93;;;7.55;;
9563;SDS011;4820;50.870;4.702;2023-06-14T01:56:56;6.82;;;6.22;;
9563;SDS011;4820;50.870;4.702;2023-06-14T01:59:22;9.55;;;7.07;;
9563;SDS011;4820;50.870;4.702;2023-06-14T02:01:49;8.25;;;7.13;;
9563;SDS011;4820;50.870;4.702;2023-06-14T02:04:15;7.97;;;7.13;;
9563;SDS011;4820;50.870;4.702;2023-06-14T02:06:41;7.72;;;7.03;;
9563;SDS011;4820;50.870;4.702;2023-06-14T02:09:06;13.18;;;7.65;;
9563;SDS011;4820;50.870;4.702;2023-06-14T02:11:32;9.38;;;6.65;;
9563;SDS011;4820;50.870;4.702;2023-06-14T02:13:58;7.97;;;7.05;;
9563;SDS011;4820;50.870;4.702;2023-06-14T02:16:25;7.53;;;6.82;;
9563;SDS011;4820;50.870;4.702;2023-06-14T02:18:53;7.07;;;6.47;;
9563;SDS011;4820;50.870;4.702;2023-06-14T02:21:18;7.65;;;6.60;;
9563;SDS011;4820;50.870;4.702;2023-06-14T02:23:44;9.25;;;6.90;;
9563;SDS011;4820;50.870;4.702;2023-06-14T02:26:10;8.82;;;7.15;;
9563;SDS011;4820;50.870;4.702;2023-06-14T02:28:36;9.45;;;7.05;;
9563;SDS011;4820;50.870;4.702;2023-06-14T02:31:02;7.78;;;6.88;;
9563;SDS011;4820;50.870;4.702;2023-06-14T02:33:28;8.20;;;6.93;;
9563;SDS011;4820;50.870;4.702;2023-06-14T02:35:53;11.15;;;7.82;;
9563;SDS011;4820;50.870;4.702;2023-06-14T02:38:19;7.60;;;6.95;;
9563;SDS011;4820;50.870;4.702;2023-06-14T02:40:45;8.02;;;7.22;;
9563;SDS011;4820;50.870;4.702;2023-06-14T02:43:11;8.13;;;7.22;;
9563;SDS011;4820;50.870;4.702;2023-06-14T02:45:37;8.20;;;7.40;;
9563;SDS011;4820;50.870;4.702;2023-06-14T02:48:03;8.50;;;7.65;;
9563;SDS011;4820;50.870;4.702;2023-06-14T02:50:29;8.00;;;7.30;;
9563;SDS011;4820;50.870;4.702;2023-06-14T02:52:55;9.10;;;7.18;;
9563;SDS011;4820;50.870;4.702;2023-06-14T02:55:22;8.30;;;7.50;;
9563;SDS011;4820;50.870;4.702;2023-06-14T02:57:47;7.43;;;6.72;;
9563;SDS011;4820;50.870;4.702;2023-06-14T03:00:14;8.45;;;7.65;;
9563;SDS011;4820;50.870;4.702;2023-06-14T03:02:40;8.70;;;7.70;;
9563;SDS011;4820;50.870;4.702;2023-06-14T03:05:07;8.75;;;7.03;;
9563;SDS011;4820;50.870;4.702;2023-06-14T03:07:35;8.77;;;7.65;;
9563;SDS011;4820;50.870;4.702;2023-06-14T03:10:07;8.70;;;7.70;;
9563;SDS011;4820;50.870;4.702;2023-06-14T03:12:34;8.32;;;7.53;;
9563;SDS011;4820;50.870;4.702;2023-06-14T03:15:00;7.93;;;7.13;;
9563;SDS011;4820;50.870;4.702;2023-06-14T03:17:26;8.15;;;7.45;;
9563;SDS011;4820;50.870;4.702;2023-06-14T03:19:55;9.38;;;7.75;;
9563;SDS011;4820;50.870;4.702;2023-06-14T03:22:20;9.15;;;7.25;;
9563;SDS011;4820;50.870;4.702;2023-06-14T03:24:47;8.40;;;7.60;;
9563;SDS011;4820;50.870;4.702;2023-06-14T03:27:13;8.02;;;7.22;;
9563;SDS011;4820;50.870;4.702;2023-06-14T03:29:39;9.05;;;8.13;;
9563;SDS011;4820;50.870;4.702;2023-06-14T03:32:06;11.48;;;7.63;;
9563;SDS011;4820;50.870;4.702;2023-06-14T03:34:32;8.35;;;7.43;;
9563;SDS011;4820;50.870;4.702;2023-06-14T03:36:57;8.85;;;7.30;;
9563;SDS011;4820;50.870;4.702;2023-06-14T03:39:23;8.52;;;7.72;;
9563;SDS011;4820;50.870;4.702;2023-06-14T03:41:50;9.15;;;7.63;;
9563;SDS011;4820;50.870;4.702;2023-06-14T03:44:16;10.70;;;7.60;;
9563;SDS011;4820;50.870;4.702;2023-06-14T03:46:43;10.88;;;7.90;;
9563;SDS011;4820;50.870;4.702;2023-06-14T03:49:10;8.63;;;7.55;;
9563;SDS011;4820;50.870;4.702;2023-06-14T03:51:36;9.88;;;7.25;;
9563;SDS011;4820;50.870;4.702;2023-06-14T03:54:02;8.57;;;7.72;;
9563;SDS011;4820;50.870;4.702;2023-06-14T03:56:27;9.00;;;7.63;;
9563;SDS011;4820;50.870;4.702;2023-06-14T03:58:53;8.52;;;7.70;;
9563;SDS011;4820;50.870;4.702;2023-06-14T04:01:19;9.10;;;8.07;;
9563;SDS011;4820;50.870;4.702;2023-06-14T04:03:45;8.73;;;7.85;;
9563;SDS011;4820;50.870;4.702;2023-06-14T04:06:10;11.35;;;8.38;;
9563;SDS011;4820;50.870;4.702;2023-06-14T04:08:36;9.48;;;7.78;;
9563;SDS011;4820;50.870;4.702;2023-06-14T04:11:04;8.40;;;7.60;;
9563;SDS011;4820;50.870;4.702;2023-06-14T04:13:30;8.23;;;7.43;;
9563;SDS011;4820;50.870;4.702;2023-06-14T04:15:56;8.07;;;7.38;;
9563;SDS011;4820;50.870;4.702;2023-06-14T04:18:22;8.88;;;8.07;;
9563;SDS011;4820;50.870;4.702;2023-06-14T04:20:48;9.10;;;8.18;;
9563;SDS011;4820;50.870;4.702;2023-06-14T04:23:18;10.43;;;7.70;;
9563;SDS011;4820;50.870;4.702;2023-06-14T04:25:44;9.35;;;8.38;;
9563;SDS011;4820;50.870;4.702;2023-06-14T04:28:15;8.70;;;7.85;;
9563;SDS011;4820;50.870;4.702;2023-06-14T04:30:42;14.88;;;8.00;;
9563;SDS011;4820;50.870;4.702;2023-06-14T04:33:09;15.27;;;7.97;;
9563;SDS011;4820;50.870;4.702;2023-06-14T04:35:37;10.13;;;8.55;;
9563;SDS011;4820;50.870;4.702;2023-06-14T04:38:04;10.73;;;7.72;;
9563;SDS011;4820;50.870;4.702;2023-06-14T04:40:34;10.75;;;8.23;;
9563;SDS011;4820;50.870;4.702;2023-06-14T04:43:01;8.88;;;7.80;;
9563;SDS011;4820;50.870;4.702;2023-06-14T04:45:30;9.52;;;7.88;;
9563;SDS011;4820;50.870;4.702;2023-06-14T04:47:58;8.82;;;7.72;;
9563;SDS011;4820;50.870;4.702;2023-06-14T04:50:24;9.35;;;8.18;;
9563;SDS011;4820;50.870;4.702;2023-06-14T04:52:50;11.13;;;8.23;;
9563;SDS011;4820;50.870;4.702;2023-06-14T04:55:16;9.30;;;7.55;;
9563;SDS011;4820;50.870;4.702;2023-06-14T04:57:44;11.23;;;8.13;;
9563;SDS011;4820;50.870;4.702;2023-06-14T05:00:10;11.02;;;8.15;;
9563;SDS011;4820;50.870;4.702;2023-06-14T05:02:37;9.02;;;8.10;;
9563;SDS011;4820;50.870;4.702;2023-06-14T05:05:03;10.40;;;8.73;;
9563;SDS011;4820;50.870;4.702;2023-06-14T05:07:31;10.88;;;8.40;;
9563;SDS011;4820;50.870;4.702;2023-06-14T05:09:58;10.35;;;8.52;;
9563;SDS011;4820;50.870;4.702;2023-06-14T05:12:25;14.55;;;9.30;;
9563;SDS011;4820;50.870;4.702;2023-06-14T05:14:51;9.02;;;8.02;;
9563;SDS011;4820;50.870;4.702;2023-06-14T05:17:17;9.55;;;7.80;;
9563;SDS011;4820;50.870;4.702;2023-06-14T05:19:42;11.68;;;8.35;;
9563;SDS011;4820;50.870;4.702;2023-06-14T05:22:08;9.82;;;8.73;;
9563;SDS011;4820;50.870;4.702;2023-06-14T05:24:34;9.90;;;8.63;;
9563;SDS011;4820;50.870;4.702;2023-06-14T05:27:00;10.07;;;8.10;;
9563;SDS011;4820;50.870;4.702;2023-06-14T05:29:26;10.43;;;8.18;;
9563;SDS011;4820;50.870;4.702;2023-06-14T05:31:52;9.70;;;8.38;;
9563;SDS011;4820;50.870;4.702;2023-06-14T05:34:18;11.50;;;8.85;;
9563;SDS011;4820;50.870;4.702;2023-06-14T05:36:43;13.07;;;8.85;;
9563;SDS011;4820;50.870;4.702;2023-06-14T05:39:09;12.10;;;8.98;;
9563;SDS011;4820;50.870;4.702;2023-06-14T05:41:35;10.90;;;8.70;;
9563;SDS011;4820;50.870;4.702;2023-06-14T05:44:01;12.73;;;8.40;;
9563;SDS011;4820;50.870;4.702;2023-06-14T05:46:27;11.25;;;9.02;;
9563;SDS011;4820;50.870;4.702;2023-06-14T05:48:53;11.65;;;7.80;;
9563;SDS011;4820;50.870;4.702;2023-06-14T05:51:19;10.38;;;8.70;;
9563;SDS011;4820;50.870;4.702;2023-06-14T05:53:46;12.55;;;8.75;;
9563;SDS011;4820;50.870;4.702;2023-06-14T05:56:12;9.43;;;8.35;;
9563;SDS011;4820;50.870;4.702;2023-06-14T05:58:39;12.10;;;8.52;;
9563;SDS011;4820;50.870;4.702;2023-06-14T06:01:04;11.05;;;8.20;;
9563;SDS011;4820;50.870;4.702;2023-06-14T06:03:31;9.80;;;7.65;;
9563;SDS011;4820;50.870;4.702;2023-06-14T06:05:57;8.90;;;8.00;;
9563;SDS011;4820;50.870;4.702;2023-06-14T06:08:23;9.23;;;7.93;;
9563;SDS011;4820;50.870;4.702;2023-06-14T06:10:49;8.70;;;7.80;;
9563;SDS011;4820;50.870;4.702;2023-06-14T06:13:15;11.27;;;8.25;;
9563;SDS011;4820;50.870;4.702;2023-06-14T06:15:41;9.35;;;7.85;;
9563;SDS011;4820;50.870;4.702;2023-06-14T06:18:07;13.32;;;7.95;;
9563;SDS011;4820;50.870;4.702;2023-06-14T06:20:32;10.23;;;7.63;;
9563;SDS011;4820;50.870;4.702;2023-06-14T06:22:58;11.30;;;8.00;;
9563;SDS011;4820;50.870;4.702;2023-06-14T06:25:24;9.43;;;7.85;;
9563;SDS011;4820;50.870;4.702;2023-06-14T06:27:52;9.85;;;7.60;;
9563;SDS011;4820;50.870;4.702;2023-06-14T06:30:19;8.32;;;7.18;;
9563;SDS011;4820;50.870;4.702;2023-06-14T06:32:45;9.82;;;7.63;;
9563;SDS011;4820;50.870;4.702;2023-06-14T06:35:12;9.25;;;7.88;;
9563;SDS011;4820;50.870;4.702;2023-06-14T06:37:38;11.10;;;7.32;;
9563;SDS011;4820;50.870;4.702;2023-06-14T06:40:04;11.27;;;7.57;;
9563;SDS011;4820;50.870;4.702;2023-06-14T06:42:31;9.40;;;7.35;;
9563;SDS011;4820;50.870;4.702;2023-06-14T06:44:57;14.20;;;8.25;;
9563;SDS011;4820;50.870;4.702;2023-06-14T06:47:23;8.38;;;7.53;;
9563;SDS011;4820;50.870;4.702;2023-06-14T06:49:48;10.32;;;7.18;;
9563;SDS011;4820;50.870;4.702;2023-06-14T06:52:14;8.45;;;6.90;;
9563;SDS011;4820;50.870;4.702;2023-06-14T06:54:40;7.80;;;7.00;;
9563;SDS011;4820;50.870;4.702;2023-06-14T06:57:06;7.38;;;6.60;;
9563;SDS011;4820;50.870;4.702;2023-06-14T06:59:31;8.27;;;7.20;;
9563;SDS011;4820;50.870;4.702;2023-06-14T07:01:58;9.07;;;7.10;;
9563;SDS011;4820;50.870;4.702;2023-06-14T07:04:23;9.48;;;8.27;;
9563;SDS011;4820;50.870;4.702;2023-06-14T07:06:49;10.07;;;8.18;;
9563;SDS011;4820;50.870;4.702;2023-06-14T07:09:15;12.82;;;7.25;;
9563;SDS011;4820;50.870;4.702;2023-06-14T07:11:42;8.90;;;6.97;;
9563;SDS011;4820;50.870;4.702;2023-06-14T07:14:08;9.35;;;6.78;;
9563;SDS011;4820;50.870;4.702;2023-06-14T07:16:34;10.38;;;7.63;;
9563;SDS011;4820;50.870;4.702;2023-06-14T07:19:01;8.23;;;6.88;;
9563;SDS011;4820;50.870;4.702;2023-06-14T07:21:28;9.32;;;6.68;;
9563;SDS011;4820;50.870;4.702;2023-06-14T07:23:53;10.02;;;7.15;;
9563;SDS011;4820;50.870;4.702;2023-06-14T07:26:19;11.07;;;8.45;;
9563;SDS011;4820;50.870;4.702;2023-06-14T07:28:46;11.63;;;7.05;;
9563;SDS011;4820;50.870;4.702;2023-06-14T07:31:15;6.85;;;6.25;;
9563;SDS011;4820;50.870;4.702;2023-06-14T07:33:41;6.93;;;6.22;;
9563;SDS011;4820;50.870;4.702;2023-06-14T07:36:07;8.23;;;6.30;;
9563;SDS011;4820;50.870;4.702;2023-06-14T07:38:33;11.45;;;6.15;;
9563;SDS011;4820;50.870;4.702;2023-06-14T07:40:59;6.95;;;6.13;;
9563;SDS011;4820;50.870;4.702;2023-06-14T07:43:25;8.27;;;5.85;;
9563;SDS011;4820;50.870;4.702;2023-06-14T07:45:51;9.27;;;6.75;;
9563;SDS011;4820;50.870;4.702;2023-06-14T07:48:17;7.97;;;6.18;;
9563;SDS011;4820;50.870;4.702;2023-06-14T07:50:43;13.80;;;7.13;;
9563;SDS011;4820;50.870;4.702;2023-06-14T07:53:08;9.25;;;6.80;;
9563;SDS011;4820;50.870;4.702;2023-06-14T07:55:34;9.50;;;7.30;;
9563;SDS011;4820;50.870;4.702;2023-06-14T07:58:02;7.25;;;6.20;;
9563;SDS011;4820;50.870;4.702;2023-06-14T08:00:30;9.95;;;6.70;;
9563;SDS011;4820;50.870;4.702;2023-06-14T08:02:55;9.93;;;6.88;;
9563;SDS011;4820;50.870;4.702;2023-06-14T08:05:25;12.45;;;7.03;;
9563;SDS011;4820;50.870;4.702;2023-06-14T08:07:52;9.60;;;6.82;;
9563;SDS011;4820;50.870;4.702;2023-06-14T08:10:17;18.83;;;8.55;;
9563;SDS011;4820;50.870;4.702;2023-06-14T08:12:43;9.60;;;6.90;;
9563;SDS011;4820;50.870;4.702;2023-06-14T08:15:09;31.58;;;16.50;;
9563;SDS011;4820;50.870;4.702;2023-06-14T08:17:35;16.80;;;8.95;;
9563;SDS011;4820;50.870;4.702;2023-06-14T08:20:01;19.63;;;8.00;;
9563;SDS011;4820;50.870;4.702;2023-06-14T08:22:28;10.13;;;7.35;;
9563;SDS011;4820;50.870;4.702;2023-06-14T08:24:57;12.73;;;6.90;;
9563;SDS011;4820;50.870;4.702;2023-06-14T08:27:23;9.02;;;6.88;;
9563;SDS011;4820;50.870;4.702;2023-06-14T08:29:49;13.43;;;7.78;;
9563;SDS011;4820;50.870;4.702;2023-06-14T08:32:15;8.25;;;7.35;;
9563;SDS011;4820;50.870;4.702;2023-06-14T08:34:41;17.33;;;8.45;;
9563;SDS011;4820;50.870;4.702;2023-06-14T08:37:06;10.45;;;7.13;;
9563;SDS011;4820;50.870;4.702;2023-06-14T08:39:32;9.70;;;6.38;;
9563;SDS011;4820;50.870;4.702;2023-06-14T08:41:58;10.82;;;6.93;;
9563;SDS011;4820;50.870;4.702;2023-06-14T08:44:29;11.85;;;6.30;;
9563;SDS011;4820;50.870;4.702;2023-06-14T08:46:59;9.85;;;5.90;;
9563;SDS011;4820;50.870;4.702;2023-06-14T08:49:25;8.50;;;6.40;;
9563;SDS011;4820;50.870;4.702;2023-06-14T08:51:57;9.65;;;7.22;;
9563;SDS011;4820;50.870;4.702;2023-06-14T08:54:28;11.25;;;6.95;;
9563;SDS011;4820;50.870;4.702;2023-06-14T08:56:59;16.15;;;7.50;;
9563;SDS011;4820;50.870;4.702;2023-06-14T08:59:26;7.25;;;6.35;;
9563;SDS011;4820;50.870;4.702;2023-06-14T09:01:52;11.57;;;6.30;;
9563;SDS011;4820;50.870;4.702;2023-06-14T09:04:20;6.93;;;6.32;;
9563;SDS011;4820;50.870;4.702;2023-06-14T09:06:47;10.82;;;6.90;;
9563;SDS011;4820;50.870;4.702;2023-06-14T09:09:23;11.48;;;6.72;;
9563;SDS011;4820;50.870;4.702;2023-06-14T09:11:52;8.57;;;6.25;;
9563;SDS011;4820;50.870;4.702;2023-06-14T09:14:18;11.48;;;6.35;;
9563;SDS011;4820;50.870;4.702;2023-06-14T09:16:44;8.18;;;6.28;;
9563;SDS011;4820;50.870;4.702;2023-06-14T09:19:21;13.57;;;6.57;;
9563;SDS011;4820;50.870;4.702;2023-06-14T09:21:50;10.07;;;6.18;;
9563;SDS011;4820;50.870;4.702;2023-06-14T09:24:18;9.63;;;6.18;;
9563;SDS011;4820;50.870;4.702;2023-06-14T09:26:47;9.07;;;6.28;;
9563;SDS011;4820;50.870;4.702;2023-06-14T09:29:13;13.80;;;6.32;;
9563;SDS011;4820;50.870;4.702;2023-06-14T09:31:42;10.90;;;5.95;;
9563;SDS011;4820;50.870;4.702;2023-06-14T09:34:08;7.78;;;6.30;;
9563;SDS011;4820;50.870;4.702;2023-06-14T09:36:35;8.05;;;6.20;;
9563;SDS011;4820;50.870;4.702;2023-06-14T09:39:02;6.70;;;5.85;;
9563;SDS011;4820;50.870;4.702;2023-06-14T09:41:39;9.23;;;6.18;;
9563;SDS011;4820;50.870;4.702;2023-06-14T09:44:06;9.20;;;6.05;;
9563;SDS011;4820;50.870;4.702;2023-06-14T09:46:33;8.82;;;6.50;;
9563;SDS011;4820;50.870;4.702;2023-06-14T09:49:00;7.85;;;5.70;;
9563;SDS011;4820;50.870;4.702;2023-06-14T09:51:27;6.50;;;5.47;;
9563;SDS011;4820;50.870;4.702;2023-06-14T09:53:54;9.57;;;5.30;;
9563;SDS011;4820;50.870;4.702;2023-06-14T09:58:58;10.30;;;5.70;;
9563;SDS011;4820;50.870;4.702;2023-06-14T10:01:25;7.43;;;5.30;;
9563;SDS011;4820;50.870;4.702;2023-06-14T10:03:55;11.65;;;5.63;;
9563;SDS011;4820;50.870;4.702;2023-06-14T10:06:29;7.63;;;5.43;;
9563;SDS011;4820;50.870;4.702;2023-06-14T10:08:56;5.75;;;5.10;;
9563;SDS011;4820;50.870;4.702;2023-06-14T10:11:25;6.13;;;5.53;;
9563;SDS011;4820;50.870;4.702;2023-06-14T10:13:51;6.68;;;4.60;;
9563;SDS011;4820;50.870;4.702;2023-06-14T10:16:22;6.75;;;5.03;;
9563;SDS011;4820;50.870;4.702;2023-06-14T10:19:42;7.00;;;5.18;;
9563;SDS011;4820;50.870;4.702;2023-06-14T10:22:36;6.55;;;5.20;;
9563;SDS011;4820;50.870;4.702;2023-06-14T10:25:07;7.50;;;4.95;;
9563;SDS011;4820;50.870;4.702;2023-06-14T10:27:38;5.82;;;4.78;;
9563;SDS011;4820;50.870;4.702;2023-06-14T10:30:06;7.13;;;4.95;;
9563;SDS011;4820;50.870;4.702;2023-06-14T10:32:33;7.07;;;4.72;;
9563;SDS011;4820;50.870;4.702;2023-06-14T10:35:05;7.78;;;4.90;;
9563;SDS011;4820;50.870;4.702;2023-06-14T10:37:34;10.50;;;5.30;;
9563;SDS011;4820;50.870;4.702;2023-06-14T10:40:00;9.07;;;5.05;;
9563;SDS011;4820;50.870;4.702;2023-06-14T10:42:35;6.93;;;4.70;;
9563;SDS011;4820;50.870;4.702;2023-06-14T10:45:01;6.47;;;5.03;;
9563;SDS011;4820;50.870;4.702;2023-06-14T10:50:08;9.90;;;4.93;;
9563;SDS011;4820;50.870;4.702;2023-06-14T10:52:38;7.70;;;4.88;;
9563;SDS011;4820;50.870;4.702;2023-06-14T10:57:40;9.60;;;4.72;;
9563;SDS011;4820;50.870;4.702;2023-06-14T11:00:16;6.07;;;4.57;;
9563;SDS011;4820;50.870;4.702;2023-06-14T11:05:31;62.15;;;8.50;;
9563;SDS011;4820;50.870;4.702;2023-06-14T11:11:09;8.40;;;4.50;;
9563;SDS011;4820;50.870;4.702;2023-06-14T11:13:39;7.22;;;4.70;;
9563;SDS011;4820;50.870;4.702;2023-06-14T11:16:12;8.48;;;5.00;;
9563;SDS011;4820;50.870;4.702;2023-06-14T11:18:44;28.85;;;8.40;;
9563;SDS011;4820;50.870;4.702;2023-06-14T11:21:10;5.03;;;4.50;;
9563;SDS011;4820;50.870;4.702;2023-06-14T11:23:36;6.97;;;4.30;;
9563;SDS011;4820;50.870;4.702;2023-06-14T11:26:02;8.10;;;4.55;;
9563;SDS011;4820;50.870;4.702;2023-06-14T11:28:39;8.77;;;4.40;;
9563;SDS011;4820;50.870;4.702;2023-06-14T11:31:05;8.35;;;4.82;;
9563;SDS011;4820;50.870;4.702;2023-06-14T11:33:32;7.72;;;4.43;;
9563;SDS011;4820;50.870;4.702;2023-06-14T11:35:58;6.70;;;4.13;;
9563;SDS011;4820;50.870;4.702;2023-06-14T11:38:26;10.05;;;4.60;;
9563;SDS011;4820;50.870;4.702;2023-06-14T11:40:51;9.90;;;4.35;;
9563;SDS011;4820;50.870;4.702;2023-06-14T11:43:17;5.88;;;4.32;;
9563;SDS011;4820;50.870;4.702;2023-06-14T11:45:43;7.80;;;4.43;;
9563;SDS011;4820;50.870;4.702;2023-06-14T11:48:14;17.00;;;5.40;;
9563;SDS011;4820;50.870;4.702;2023-06-14T11:50:40;12.07;;;4.72;;
9563;SDS011;4820;50.870;4.702;2023-06-14T11:53:06;5.20;;;4.28;;
9563;SDS011;4820;50.870;4.702;2023-06-14T11:55:38;7.18;;;4.50;;
9563;SDS011;4820;50.870;4.702;2023-06-14T11:58:07;5.07;;;4.10;;
9563;SDS011;4820;50.870;4.702;2023-06-14T12:00:35;6.95;;;4.07;;
9563;SDS011;4820;50.870;4.702;2023-06-14T12:03:01;8.25;;;3.97;;
9563;SDS011;4820;50.870;4.702;2023-06-14T12:05:28;5.90;;;4.10;;
9563;SDS011;4820;50.870;4.702;2023-06-14T12:08:01;4.57;;;4.15;;
9563;SDS011;4820;50.870;4.702;2023-06-14T12:10:28;6.55;;;3.85;;
9563;SDS011;4820;50.870;4.702;2023-06-14T12:12:58;8.38;;;4.05;;
9563;SDS011;4820;50.870;4.702;2023-06-14T12:15:24;16.40;;;4.35;;
9563;SDS011;4820;50.870;4.702;2023-06-14T12:17:53;6.70;;;4.30;;
9563;SDS011;4820;50.870;4.702;2023-06-14T12:20:19;7.82;;;3.88;;
9563;SDS011;4820;50.870;4.702;2023-06-14T12:22:53;30.73;;;5.25;;
9563;SDS011;4820;50.870;4.702;2023-06-14T12:25:41;28.10;;;5.10;;
9563;SDS011;4820;50.870;4.702;2023-06-14T12:28:08;10.48;;;4.10;;
9563;SDS011;4820;50.870;4.702;2023-06-14T12:30:37;5.38;;;3.42;;
9563;SDS011;4820;50.870;4.702;2023-06-14T12:33:03;5.57;;;3.40;;
9563;SDS011;4820;50.870;4.702;2023-06-14T12:35:30;7.63;;;3.65;;
9563;SDS011;4820;50.870;4.702;2023-06-14T12:37:56;5.43;;;3.25;;
9563;SDS011;4820;50.870;4.702;2023-06-14T12:40:22;3.67;;;3.38;;
9563;SDS011;4820;50.870;4.702;2023-06-14T12:42:47;4.68;;;3.28;;
9563;SDS011;4820;50.870;4.702;2023-06-14T12:45:13;3.92;;;3.53;;
9563;SDS011;4820;50.870;4.702;2023-06-14T12:47:39;6.20;;;3.53;;
9563;SDS011;4820;50.870;4.702;2023-06-14T12:50:05;5.07;;;3.78;;
9563;SDS011;4820;50.870;4.702;2023-06-14T12:52:32;4.68;;;3.63;;
9563;SDS011;4820;50.870;4.702;2023-06-14T12:55:01;7.80;;;3.45;;
9563;SDS011;4820;50.870;4.702;2023-06-14T12:57:28;7.00;;;3.85;;
9563;SDS011;4820;50.870;4.702;2023-06-14T12:59:54;5.93;;;3.53;;
9563;SDS011;4820;50.870;4.702;2023-06-14T13:02:20;3.80;;;3.30;;
9563;SDS011;4820;50.870;4.702;2023-06-14T13:04:47;5.22;;;2.95;;
9563;SDS011;4820;50.870;4.702;2023-06-14T13:07:13;7.25;;;3.42;;
9563;SDS011;4820;50.870;4.702;2023-06-14T13:09:41;7.93;;;3.13;;
9563;SDS011;4820;50.870;4.702;2023-06-14T13:12:07;8.40;;;2.90;;
9563;SDS011;4820;50.870;4.702;2023-06-14T13:14:35;6.45;;;3.00;;
9563;SDS011;4820;50.870;4.702;2023-06-14T13:17:01;7.30;;;2.85;;
9563;SDS011;4820;50.870;4.702;2023-06-14T13:19:27;4.90;;;2.97;;
9563;SDS011;4820;50.870;4.702;2023-06-14T13:21:52;3.83;;;2.45;;
9563;SDS011;4820;50.870;4.702;2023-06-14T13:24:18;3.38;;;2.63;;
9563;SDS011;4820;50.870;4.702;2023-06-14T13:26:44;4.20;;;2.40;;
9563;SDS011;4820;50.870;4.702;2023-06-14T13:29:10;4.75;;;2.60;;
9563;SDS011;4820;50.870;4.702;2023-06-14T13:31:36;2.58;;;2.35;;
9563;SDS011;4820;50.870;4.702;2023-06-14T13:34:02;4.70;;;2.50;;
9563;SDS011;4820;50.870;4.702;2023-06-14T13:36:29;5.20;;;2.50;;
9563;SDS011;4820;50.870;4.702;2023-06-14T13:38:55;2.33;;;2.13;;
9563;SDS011;4820;50.870;4.702;2023-06-14T13:41:21;2.38;;;2.15;;
9563;SDS011;4820;50.870;4.702;2023-06-14T13:43:46;4.45;;;2.28;;
9563;SDS011;4820;50.870;4.702;2023-06-14T13:46:13;4.50;;;2.72;;
9563;SDS011;4820;50.870;4.702;2023-06-14T13:48:39;5.90;;;2.40;;
9563;SDS011;4820;50.870;4.702;2023-06-14T13:51:05;3.65;;;2.40;;
9563;SDS011;4820;50.870;4.702;2023-06-14T13:53:32;8.55;;;2.30;;
9563;SDS011;4820;50.870;4.702;2023-06-14T13:55:57;3.00;;;2.40;;
9563;SDS011;4820;50.870;4.702;2023-06-14T13:58:23;2.83;;;2.30;;
9563;SDS011;4820;50.870;4.702;2023-06-14T14:00:49;5.40;;;2.47;;
9563;SDS011;4820;50.870;4.702;2023-06-14T14:03:14;9.18;;;7.57;;
9563;SDS011;4820;50.870;4.702;2023-06-14T14:05:40;4.43;;;2.38;;
9563;SDS011;4820;50.870;4.702;2023-06-14T14:08:06;5.60;;;2.70;;
9563;SDS011;4820;50.870;4.702;2023-06-14T14:10:32;4.07;;;2.35;;
9563;SDS011;4820;50.870;4.702;2023-06-14T14:12:58;4.18;;;2.20;;
9563;SDS011;4820;50.870;4.702;2023-06-14T14:15:24;5.63;;;2.60;;
9563;SDS011;4820;50.870;4.702;2023-06-14T14:17:50;5.15;;;3.53;;
9563;SDS011;4820;50.870;4.702;2023-06-14T14:20:16;6.47;;;2.83;;
9563;SDS011;4820;50.870;4.702;2023-06-14T14:22:42;3.67;;;2.47;;
9563;SDS011;4820;50.870;4.702;2023-06-14T14:25:08;3.53;;;2.50;;
9563;SDS011;4820;50.870;4.702;2023-06-14T14:27:35;3.45;;;2.58;;
9563;SDS011;4820;50.870;4.702;2023-06-14T14:30:00;5.00;;;2.40;;
9563;SDS011;4820;50.870;4.702;2023-06-14T14:32:26;2.63;;;2.30;;
9563;SDS011;4820;50.870;4.702;2023-06-14T14:34:52;3.83;;;2.35;;
9563;SDS011;4820;50.870;4.702;2023-06-14T14:37:18;4.85;;;2.50;;
9563;SDS011;4820;50.870;4.702;2023-06-14T14:39:44;3.00;;;2.70;;
9563;SDS011;4820;50.870;4.702;2023-06-14T14:42:11;8.63;;;3.70;;
9563;SDS011;4820;50.870;4.702;2023-06-14T14:44:37;3.80;;;2.75;;
9563;SDS011;4820;50.870;4.702;2023-06-14T14:47:04;3.53;;;2.50;;
9563;SDS011;4820;50.870;4.702;2023-06-14T14:49:30;3.40;;;2.33;;
9563;SDS011;4820;50.870;4.702;2023-06-14T14:51:56;2.88;;;2.30;;
9563;SDS011;4820;50.870;4.702;2023-06-14T14:54:22;3.97;;;2.42;;
9563;SDS011;4820;50.870;4.702;2023-06-14T14:56:48;3.85;;;2.47;;
9563;SDS011;4820;50.870;4.702;2023-06-14T14:59:14;5.53;;;2.60;;
9563;SDS011;4820;50.870;4.702;2023-06-14T15:01:42;4.43;;;3.03;;
9563;SDS011;4820;50.870;4.702;2023-06-14T15:04:07;3.50;;;2.70;;
9563;SDS011;4820;50.870;4.702;2023-06-14T15:06:33;4.90;;;2.80;;
9563;SDS011;4820;50.870;4.702;2023-06-14T15:09:00;4.68;;;2.60;;
9563;SDS011;4820;50.870;4.702;2023-06-14T15:11:27;3.58;;;2.47;;
9563;SDS011;4820;50.870;4.702;2023-06-14T15:13:52;4.50;;;2.42;;
9563;SDS011;4820;50.870;4.702;2023-06-14T15:16:19;3.38;;;2.50;;
9563;SDS011;4820;50.870;4.702;2023-06-14T15:18:44;4.97;;;2.58;;
9563;SDS011;4820;50.870;4.702;2023-06-14T15:21:10;6.47;;;2.75;;
9563;SDS011;4820;50.870;4.702;2023-06-14T15:23:37;3.90;;;2.38;;
9563;SDS011;4820;50.870;4.702;2023-06-14T15:26:03;5.90;;;2.63;;
9563;SDS011;4820;50.870;4.702;2023-06-14T15:28:29;4.22;;;2.45;;